Anchorville, MI (48004)

6:57 PM EST on January 30, 2015 (GMT -0500)
Swan Creek | Change Station
CLOSE
Current Station
Personal Weather Station
Location: Michigan, MI
Elevation: 584 ft
Nearby Weather Stations

Elev 584 ft 42.68 °N, 82.65 °W | Updated 60 seconds ago

Clear
Clear
8.3 °F
Feels Like 8 °F
N
0.0
Wind Variable Wind from NE
Gusts 0.0 mph

Today
High -- | Low -- °F
--% Chance of Precip.
Yesterday
High -- | Low -- °F
Precip. -- in
7:47 AM 5:41 PM
Waxing Gibbous, 86% visible
Pressure 30.48 in
Visibility 12.0 miles
Clouds Few 20000 ft
Windchill 8 °F
Dew Point 1 °F
Humidity 71%
Rainfall 0.00 in
Snow Depth Not available.
UV 0 out of 12
Pollen .10 out of 12
Air Quality Not available.
Flu Activity Not available.
METAR KMTC 302255Z 34004KT 12SM FEW200 M10/M18 A3042 RMK SLP319 T11021180

More Conditions Fewer Conditions

Pressure 30.48 in
Visibility 12.0 miles
Clouds Few 20000 ft
Windchill 8 °F
Dew Point 1 °F
Humidity 71%
Rainfall 0.00 in
Snow Depth Not available.
UV 0 out of 12
Pollen .10 out of 12
Air Quality Not available.
Flu Activity Not available.
METAR KMTC 302255Z 34004KT 12SM FEW200 M10/M18 A3042 RMK SLP319 T11021180

More Conditions Fewer Conditions

10-Day Weather Forecast

Almanac

Astronomy

Jan. 30, 2015 Rise Set
Actual Time
Civil Twilight
Nautical Twilight
Astronomical Twilight
Moon
Length of Visible Light
Length of Day
Tomorrow will be .
, % of the Moon is Illuminated

Today's Extremes

State Highs State Lows

Community

WunderPhotos

Upload Photos

1,791,934 photos uploaded!

WunderBlogs® & News

Nearby

Air Quality

  Air Quality AQ Index Pollutant
Not available.

Snow Depth

Station Depth Elevation

Earthquake Activity

City Distance Mag. Time & Date
Minimum magnitude displayed is 2.5.

Coastal Water Temperatures

Place Temperature

Nearby Weather Stations